createdAt,value
2022-08-05T00:00:25.895Z,100968.38
2022-08-05T00:02:54.041Z,100988.78
2022-08-05T00:05:27.167Z,100995.88
2022-08-05T00:08:32.460Z,100983.47
2022-08-05T00:11:00.694Z,100979.91
2022-08-05T00:13:38.941Z,100967.63
2022-08-05T00:16:10.861Z,100979.03
2022-08-05T00:18:44.489Z,100976.38
2022-08-05T00:21:14.468Z,100979.91
2022-08-05T00:23:46.873Z,100985.28
2022-08-05T00:26:22.377Z,100976.38
2022-08-05T00:28:51.150Z,100961.31
2022-08-05T00:31:53.591Z,100959.53
2022-08-05T00:34:54.485Z,100968.44
2022-08-05T00:37:11.391Z,100966.78
2022-08-05T00:39:57.173Z,100972.06
2022-08-05T00:42:32.785Z,100960.53
2022-08-05T00:45:01.207Z,100960.53
2022-08-05T00:47:53.337Z,100965.84
2022-08-05T00:50:18.647Z,100956.09
2022-08-05T00:52:49.017Z,100974.72
2022-08-05T00:55:16.880Z,100963.28
2022-08-05T00:57:58.554Z,100955.19
2022-08-05T01:00:28.383Z,100956.94
2022-08-05T01:02:59.864Z,100956.94
2022-08-05T01:05:28.280Z,100948.97
2022-08-05T01:08:41.597Z,100928.59
2022-08-05T01:10:51.699Z,100932.94
2022-08-05T01:13:57.734Z,100938.22
2022-08-05T01:16:26.215Z,100946.19
2022-08-05T01:19:00.891Z,100955.03
2022-08-05T01:21:50.468Z,100937.28
2022-08-05T01:24:38.749Z,100939.03
2022-08-05T01:27:19.207Z,100933.72
2022-08-05T01:29:53.699Z,100931.91
2022-08-05T01:32:27.643Z,100922.13
2022-08-05T01:34:59.678Z,100916.78
2022-08-05T01:37:36.952Z,100901.72
2022-08-05T01:40:14.074Z,100902.63
2022-08-05T01:42:48.498Z,100903.50
2022-08-05T01:45:19.417Z,100910.63
2022-08-05T01:47:50.581Z,100856.84
2022-08-05T01:50:28.569Z,100855.97
2022-08-05T01:53:01.344Z,100910.69
2022-08-05T01:55:36.264Z,100916.03
2022-08-05T01:58:10.897Z,100919.66
2022-08-05T02:00:50.184Z,100902.88
2022-08-05T02:03:29.011Z,100889.59
2022-08-05T02:06:03.369Z,100913.56
2022-08-05T02:08:32.357Z,100891.41
2022-08-05T02:11:06.190Z,100910.09
2022-08-05T02:13:53.811Z,100895.03
2022-08-05T02:16:27.616Z,100891.47
2022-08-05T02:19:00.083Z,100865.66
2022-08-05T02:21:40.320Z,100866.50
2022-08-05T02:24:23.238Z,100870.91
2022-08-05T02:26:55.538Z,100867.28
2022-08-05T02:29:59.556Z,100813.44
2022-08-05T02:32:23.833Z,100795.72
2022-08-05T02:34:59.204Z,100840.59
2022-08-05T02:37:34.255Z,100836.16
2022-08-05T02:40:04.531Z,100834.38
2022-08-05T02:42:38.869Z,100795.72
2022-08-05T02:45:10.356Z,100839.75
2022-08-05T02:48:06.711Z,100838.84
2022-08-05T02:50:30.121Z,100822.06
2022-08-05T02:52:59.138Z,100819.41
2022-08-05T02:55:54.885Z,100800.81
2022-08-05T02:58:17.956Z,100804.34
2022-08-05T03:00:50.920Z,100800.88
2022-08-05T03:03:23.607Z,100797.25
2022-08-05T03:06:56.883Z,100805.22
2022-08-05T03:08:43.308Z,100814.13
2022-08-05T03:11:53.199Z,100817.75
2022-08-05T03:14:08.379Z,100831.13
2022-08-05T03:16:36.433Z,100834.78
2022-08-05T03:19:12.655Z,100803.94
2022-08-05T03:21:48.863Z,100827.75
2022-08-05T03:24:29.341Z,100817.09
2022-08-05T03:26:58.180Z,100803.94
2022-08-05T03:29:45.880Z,100776.63
2022-08-05T03:32:15.573Z,100843.69
2022-08-05T03:34:50.714Z,100848.16
2022-08-05T03:37:21.127Z,100840.25
2022-08-05T03:40:00.877Z,100865.00
2022-08-05T03:42:32.912Z,100871.31
2022-08-05T03:45:21.880Z,100865.16
2022-08-05T03:47:51.507Z,100872.28
2022-08-05T03:50:21.626Z,100856.28
2022-08-05T03:55:06.741Z,100860.69
2022-08-05T03:56:12.053Z,100852.63
2022-08-05T03:58:45.954Z,100822.59
2022-08-05T04:01:20.696Z,100841.97
2022-08-05T04:04:09.227Z,100847.28
2022-08-05T04:06:42.805Z,100797.97
2022-08-05T04:09:20.257Z,100853.59
2022-08-05T04:11:54.331Z,100875.72
2022-08-05T04:14:29.517Z,100874.06
2022-08-05T04:16:59.611Z,100887.41
2022-08-05T04:19:28.562Z,100882.16
2022-08-05T04:22:09.046Z,100845.22
2022-08-05T04:24:44.065Z,100841.84
2022-08-05T04:27:13.686Z,100911.69
2022-08-05T04:29:42.051Z,100909.09
2022-08-05T04:32:10.915Z,100916.28
2022-08-05T04:34:42.668Z,100925.19
2022-08-05T04:37:20.766Z,100895.94
2022-08-05T04:39:59.443Z,100872.06
2022-08-05T04:42:27.517Z,100874.81
2022-08-05T04:44:55.395Z,100881.94
2022-08-05T04:47:23.438Z,100867.75
2022-08-05T04:50:02.733Z,100834.22
2022-08-05T04:52:40.273Z,100861.53
2022-08-05T04:55:14.254Z,100853.53
2022-08-05T04:57:47.744Z,100827.78
2022-08-05T05:00:23.686Z,100806.47
2022-08-05T05:02:52.473Z,100794.91
2022-08-05T05:05:28.056Z,100790.44
2022-08-05T05:08:02.404Z,100770.91
2022-08-05T05:10:33.295Z,100762.91
2022-08-05T05:13:03.644Z,100754.03
2022-08-05T05:16:01.851Z,100771.75
2022-08-05T05:18:28.753Z,100793.03
2022-08-05T05:21:02.004Z,100801.91
2022-08-05T05:23:39.310Z,100816.09
2022-08-05T05:26:28.619Z,100810.78
2022-08-05T05:29:01.208Z,100816.97
2022-08-05T05:34:02.338Z,100819.63
2022-08-05T05:36:31.455Z,100826.69
2022-08-05T05:39:03.799Z,100804.69
2022-08-05T05:41:40.468Z,100808.03
2022-08-05T05:44:36.898Z,100815.09
2022-08-05T05:46:58.434Z,100804.47
2022-08-05T05:49:31.974Z,100803.41
2022-08-05T05:52:01.505Z,100801.59
2022-08-05T05:54:50.128Z,100772.50
2022-08-05T05:57:19.546Z,100817.38
2022-08-05T05:59:49.011Z,100808.53
2022-08-05T06:02:17.243Z,100818.94
2022-08-05T06:05:01.397Z,100809.97
2022-08-05T06:07:41.274Z,100817.69
2022-08-05T06:10:12.784Z,100816.56
2022-08-05T06:12:42.192Z,100824.34
2022-08-05T06:15:23.728Z,100801.19
2022-08-05T06:17:54.483Z,100825.72
2022-08-05T06:20:23.149Z,100831.75
2022-08-05T06:22:51.344Z,100828.03
2022-08-05T06:25:24.527Z,100810.25
2022-08-05T06:28:12.585Z,100828.56
2022-08-05T06:30:49.676Z,100837.25
2022-08-05T06:33:19.387Z,100838.94
2022-08-05T06:36:06.972Z,100837.94
2022-08-05T06:38:37.874Z,100815.81
2022-08-05T06:41:08.345Z,100828.06
2022-08-05T06:43:57.782Z,100831.44
2022-08-05T06:46:30.123Z,100806.63
2022-08-05T06:48:59.487Z,100828.44
2022-08-05T06:51:30.072Z,100830.00
2022-08-05T06:54:02.178Z,100831.59
2022-08-05T06:56:34.762Z,100822.59
2022-08-05T06:59:03.201Z,100833.28
2022-08-05T07:01:32.405Z,100828.91
2022-08-05T07:04:01.498Z,100835.03
2022-08-05T07:06:31.908Z,100840.19
2022-08-05T07:09:04.101Z,100829.22
2022-08-05T07:11:36.940Z,100826.28
2022-08-05T07:14:29.739Z,100834.88
2022-08-05T07:17:58.470Z,100825.56
2022-08-05T07:20:34.053Z,100837.59
2022-08-05T07:22:38.997Z,100838.81
2022-08-05T07:25:21.780Z,100836.38
2022-08-05T07:27:58.296Z,100785.84
2022-08-05T07:30:32.723Z,100828.13
2022-08-05T07:33:01.687Z,100834.69
2022-08-05T07:36:02.307Z,100839.88
2022-08-05T07:38:26.241Z,100840.03
2022-08-05T07:42:08.288Z,100835.88
2022-08-05T07:43:53.153Z,100837.34
2022-08-05T07:46:25.978Z,100835.91
2022-08-05T07:49:02.328Z,100830.19
2022-08-05T07:51:40.716Z,100806.88
2022-08-05T07:54:11.431Z,100831.47
2022-08-05T07:57:00.760Z,100834.63
2022-08-05T07:59:39.076Z,100832.22
2022-08-05T08:02:15.220Z,100817.19
2022-08-05T08:04:44.875Z,100824.25
2022-08-05T08:07:13.436Z,100821.38
2022-08-05T08:09:41.362Z,100815.25
2022-08-05T08:12:20.978Z,100804.47
2022-08-05T08:15:02.522Z,100763.78
2022-08-05T08:17:31.794Z,100811.50
2022-08-05T08:20:21.167Z,100818.28
2022-08-05T08:22:52.563Z,100815.81
2022-08-05T08:25:27.101Z,100817.88
2022-08-05T08:28:18.467Z,100814.38
2022-08-05T08:30:58.066Z,100835.06
2022-08-05T08:33:28.011Z,100825.84
2022-08-05T08:36:12.973Z,100834.16
2022-08-05T08:38:53.128Z,100826.03
2022-08-05T08:41:25.920Z,100816.38
2022-08-05T08:45:24.012Z,100824.88
2022-08-05T08:46:48.260Z,100818.19
2022-08-05T08:50:05.787Z,100768.72
2022-08-05T08:52:14.394Z,100808.56
2022-08-05T08:54:44.588Z,100804.53
2022-08-05T08:57:14.001Z,100786.91
2022-08-05T08:59:47.183Z,100796.97
2022-08-05T09:02:21.212Z,100793.66
2022-08-05T09:05:16.392Z,100794.84
2022-08-05T09:07:57.431Z,100785.25
2022-08-05T09:10:27.140Z,100759.75
2022-08-05T09:13:04.934Z,100781.84
2022-08-05T09:15:36.755Z,100788.50
2022-08-05T09:18:08.675Z,100772.25
2022-08-05T09:20:38.295Z,100775.78
2022-08-05T09:23:18.677Z,100770.03
2022-08-05T09:26:02.045Z,100784.50
2022-08-05T09:28:34.349Z,100774.16
2022-08-05T09:31:18.109Z,100776.44
2022-08-05T09:33:58.635Z,100775.56
2022-08-05T09:36:54.323Z,100774.19
2022-08-05T09:39:41.829Z,100771.91
2022-08-05T09:42:23.391Z,100768.56
2022-08-05T09:44:57.154Z,100768.59
2022-08-05T09:47:48.051Z,100750.97
2022-08-05T09:50:37.361Z,100758.91
2022-08-05T09:53:07.058Z,100756.03
2022-08-05T09:55:56.403Z,100749.91
2022-08-05T09:58:29.195Z,100756.06
2022-08-05T10:01:00.568Z,100755.97
2022-08-05T10:03:56.909Z,100760.91
2022-08-05T10:06:20.879Z,100752.16
2022-08-05T10:08:53.806Z,100754.16
2022-08-05T10:11:22.911Z,100752.38
2022-08-05T10:13:54.711Z,100756.25
2022-08-05T10:16:31.262Z,100740.41
2022-08-05T10:19:00.774Z,100734.53
2022-08-05T10:21:35.303Z,100713.53
2022-08-05T10:24:10.748Z,100720.00
2022-08-05T10:26:51.277Z,100712.25
2022-08-05T10:29:23.640Z,100712.25
2022-08-05T10:33:00.749Z,100717.66
2022-08-05T10:35:01.021Z,100700.00
2022-08-05T10:37:40.424Z,100691.47
2022-08-05T10:40:28.134Z,100693.88
2022-08-05T10:43:04.698Z,100689.91
2022-08-05T10:45:41.682Z,100693.13
2022-08-05T10:48:52.343Z,100696.13
2022-08-05T10:51:28.764Z,100701.25
2022-08-05T10:54:01.908Z,100693.84
2022-08-05T10:56:45.821Z,100696.34
2022-08-05T11:00:04.430Z,100690.69
2022-08-05T11:02:14.469Z,100718.75
2022-08-05T11:04:59.219Z,100721.00
2022-08-05T11:07:33.117Z,100740.25
2022-08-05T11:10:27.608Z,100719.72
2022-08-05T11:12:58.286Z,100720.53
2022-08-05T11:15:59.394Z,100720.53
2022-08-05T11:18:30.174Z,100726.13
2022-08-05T11:21:02.837Z,100722.72
2022-08-05T11:24:05.500Z,100717.63
2022-08-05T11:26:29.013Z,100708.47
2022-08-05T11:29:12.007Z,100692.00
2022-08-05T11:31:56.766Z,100733.50
2022-08-05T11:34:52.095Z,100734.16
2022-08-05T11:38:31.029Z,100739.41
2022-08-05T11:41:35.699Z,100743.78
2022-08-05T11:46:37.997Z,100718.75
2022-08-05T11:49:26.124Z,100717.53
2022-08-05T11:51:54.618Z,100690.91
2022-08-05T11:54:34.007Z,100723.13
2022-08-05T11:57:08.458Z,100723.03
2022-08-05T11:59:53.537Z,100733.66
2022-08-05T12:02:30.097Z,100735.59
2022-08-05T12:05:07.027Z,100729.41
2022-08-05T12:08:07.462Z,100725.75
2022-08-05T12:10:43.589Z,100730.03
2022-08-05T12:13:16.450Z,100703.72
2022-08-05T12:15:49.880Z,100718.72
2022-08-05T12:18:20.768Z,100749.66
2022-08-05T12:20:52.703Z,100746.28
2022-08-05T12:23:20.764Z,100736.78
2022-08-05T12:25:56.945Z,100747.94
2022-08-05T12:28:33.793Z,100759.19
2022-08-05T12:31:03.698Z,100745.41
2022-08-05T12:33:36.651Z,100758.03
2022-08-05T12:36:09.002Z,100778.03
2022-08-05T12:38:39.596Z,100789.00
2022-08-05T12:41:13.803Z,100795.50
2022-08-05T12:43:58.455Z,100769.47
2022-08-05T12:46:31.241Z,100757.53
2022-08-05T12:49:01.157Z,100791.72
2022-08-05T12:52:13.716Z,100787.63
2022-08-05T12:54:33.683Z,100780.66
2022-08-05T12:57:04.005Z,100758.66
2022-08-05T13:00:08.214Z,100757.75
2022-08-05T13:02:39.892Z,100760.47
2022-08-05T13:05:11.252Z,100766.66
2022-08-05T13:08:00.287Z,100744.44
2022-08-05T13:10:32.218Z,100745.28
2022-08-05T13:13:00.506Z,100736.38
2022-08-05T13:15:41.795Z,100719.59
2022-08-05T13:18:20.634Z,100731.03
2022-08-05T13:20:50.072Z,100687.84
2022-08-05T13:23:22.395Z,100731.06
2022-08-05T13:25:59.655Z,100724.91
2022-08-05T13:28:32.328Z,100734.72
2022-08-05T13:31:11.132Z,100733.00
2022-08-05T13:34:22.858Z,100733.94
2022-08-05T13:36:31.682Z,100716.19
2022-08-05T13:38:59.610Z,100723.91
2022-08-05T13:41:36.065Z,100708.75
2022-08-05T13:44:06.301Z,100707.78
2022-08-05T13:46:50.805Z,100694.47
2022-08-05T13:49:24.038Z,100692.72
2022-08-05T13:51:52.079Z,100686.56
2022-08-05T13:54:25.137Z,100680.31
2022-08-05T13:56:54.590Z,100686.50
2022-08-05T13:59:27.008Z,100688.22
2022-08-05T14:01:59.005Z,100683.81
2022-08-05T14:04:49.219Z,100697.19
2022-08-05T14:07:25.715Z,100723.00
2022-08-05T14:10:08.627Z,100727.56
2022-08-05T14:12:37.045Z,100736.56
2022-08-05T14:16:04.795Z,100738.50
2022-08-05T14:17:54.898Z,100730.69
2022-08-05T14:20:29.613Z,100735.19
2022-08-05T14:22:58.250Z,100732.63
2022-08-05T14:25:28.381Z,100729.19
2022-08-05T14:27:58.641Z,100742.53
2022-08-05T14:30:28.073Z,100745.16
2022-08-05T14:32:57.065Z,100741.59
2022-08-05T14:35:37.039Z,100737.22
2022-08-05T14:38:31.735Z,100732.81
2022-08-05T14:41:05.851Z,100727.38
2022-08-05T14:44:01.905Z,100717.63
2022-08-05T14:46:28.423Z,100718.47
2022-08-05T14:49:03.442Z,100711.34
2022-08-05T14:51:36.191Z,100662.97
2022-08-05T14:54:28.458Z,100691.97
2022-08-05T14:56:55.936Z,100700.69
2022-08-05T14:59:24.447Z,100699.81
2022-08-05T15:01:53.798Z,100693.63
2022-08-05T15:04:23.693Z,100698.94
2022-08-05T15:06:57.015Z,100692.69
2022-08-05T15:09:52.403Z,100674.09
2022-08-05T15:12:27.025Z,100680.28
2022-08-05T15:14:56.109Z,100675.81
2022-08-05T15:17:46.789Z,100675.81
2022-08-05T15:20:17.183Z,100683.84
2022-08-05T15:22:54.238Z,100688.28
2022-08-05T15:25:52.968Z,100697.13
2022-08-05T15:28:16.178Z,100696.31
2022-08-05T15:30:45.757Z,100694.56
2022-08-05T15:33:56.864Z,100677.88
2022-08-05T15:36:04.013Z,100683.94
2022-08-05T15:38:35.815Z,100688.34
2022-08-05T15:41:23.210Z,100691.78
2022-08-05T15:43:52.471Z,100681.97
2022-08-05T15:46:24.627Z,100674.84
2022-08-05T15:49:00.671Z,100677.50
2022-08-05T15:52:04.023Z,100686.44
2022-08-05T15:54:18.655Z,100677.66
2022-08-05T15:56:48.797Z,100668.84
2022-08-05T15:59:21.719Z,100619.47
2022-08-05T16:01:52.363Z,100665.22
2022-08-05T16:04:25.126Z,100665.16
2022-08-05T16:06:55.580Z,100655.69
2022-08-05T16:09:23.946Z,100645.56
2022-08-05T16:11:54.327Z,100661.97
2022-08-05T16:14:22.741Z,100674.50
2022-08-05T16:16:51.006Z,100674.69
2022-08-05T16:20:03.754Z,100656.44
2022-08-05T16:22:10.672Z,100684.00
2022-08-05T16:24:41.897Z,100676.09
2022-08-05T16:27:46.897Z,100693.09
2022-08-05T16:30:25.918Z,100696.75
2022-08-05T16:32:55.090Z,100694.97
2022-08-05T16:35:28.101Z,100684.50
2022-08-05T16:38:15.435Z,100688.13
2022-08-05T16:40:51.700Z,100675.72
2022-08-05T16:43:26.692Z,100681.97
2022-08-05T16:46:04.011Z,100693.53
2022-08-05T16:48:41.000Z,100696.22
2022-08-05T16:51:10.772Z,100702.53
2022-08-05T16:54:03.089Z,100704.34
2022-08-05T16:56:30.170Z,100691.91
2022-08-05T16:59:00.886Z,100659.38
2022-08-05T17:01:53.957Z,100697.28
2022-08-05T17:04:21.045Z,100692.16
2022-08-05T17:06:53.103Z,100698.31
2022-08-05T17:09:22.979Z,100681.47
2022-08-05T17:11:55.918Z,100684.09
2022-08-05T17:14:37.422Z,100686.75
2022-08-05T17:17:14.289Z,100692.97
2022-08-05T17:19:46.147Z,100692.09
2022-08-05T17:22:17.870Z,100697.47
2022-08-05T17:24:57.921Z,100704.53
2022-08-05T17:27:34.306Z,100693.94
2022-08-05T17:30:12.265Z,100700.03
2022-08-05T17:32:47.157Z,100693.75
2022-08-05T17:35:20.926Z,100694.66
2022-08-05T17:37:50.558Z,100700.84
2022-08-05T17:40:22.539Z,100675.31
2022-08-05T17:42:53.165Z,100695.59
2022-08-05T17:45:29.557Z,100693.84
2022-08-05T17:48:07.985Z,100698.31
2022-08-05T17:50:36.562Z,100680.72
2022-08-05T17:53:08.450Z,100691.22
2022-08-05T17:55:37.898Z,100696.50
2022-08-05T17:58:11.153Z,100657.69
2022-08-05T18:00:45.339Z,100642.63
2022-08-05T18:06:11.935Z,100691.13
2022-08-05T18:08:44.231Z,100693.78
2022-08-05T18:11:23.663Z,100702.66
2022-08-05T18:14:04.284Z,100699.13
2022-08-05T18:16:51.468Z,100701.78
2022-08-05T18:19:22.675Z,100697.34
2022-08-05T18:22:09.801Z,100681.44
2022-08-05T18:24:39.926Z,100688.44
2022-08-05T18:27:12.809Z,100662.97
2022-08-05T18:29:53.720Z,100699.09
2022-08-05T18:32:28.063Z,100698.22
2022-08-05T18:34:57.914Z,100672.72
2022-08-05T18:37:34.198Z,100706.22
2022-08-05T18:40:34.288Z,100705.38
2022-08-05T18:42:57.928Z,100710.88
2022-08-05T18:45:41.311Z,100702.09
2022-08-05T18:48:30.559Z,100712.78
2022-08-05T18:52:05.516Z,100711.06
2022-08-05T18:54:06.670Z,100722.66
2022-08-05T18:56:38.036Z,100726.28
2022-08-05T18:59:41.867Z,100717.53
2022-08-05T19:01:56.969Z,100717.56
2022-08-05T19:04:29.346Z,100726.47
2022-08-05T19:06:57.613Z,100725.63
2022-08-05T19:09:25.469Z,100731.84
2022-08-05T19:12:00.458Z,100723.91
2022-08-05T19:14:44.465Z,100729.28
2022-08-05T19:17:18.100Z,100713.41
2022-08-05T19:19:48.881Z,100730.22
2022-08-05T19:22:17.785Z,100742.63
2022-08-05T19:24:54.563Z,100719.69
2022-08-05T19:27:30.443Z,100730.38
2022-08-05T19:29:58.774Z,100719.88
2022-08-05T19:32:27.714Z,100737.56
2022-08-05T19:34:57.875Z,100737.59
2022-08-05T19:37:29.848Z,100736.72
2022-08-05T19:40:14.977Z,100734.09
2022-08-05T19:43:04.787Z,100741.19
2022-08-05T19:45:33.357Z,100740.34
2022-08-05T19:48:06.007Z,100689.13
2022-08-05T19:50:36.821Z,100725.34
2022-08-05T19:53:09.611Z,100731.53
2022-08-05T19:56:14.311Z,100720.91
2022-08-05T19:58:29.368Z,100695.31
2022-08-05T20:00:58.113Z,100704.13
2022-08-05T20:03:27.377Z,100722.66
2022-08-05T20:06:15.603Z,100723.56
2022-08-05T20:08:47.459Z,100718.25
2022-08-05T20:11:17.949Z,100712.06
2022-08-05T20:13:58.980Z,100709.44
2022-08-05T20:16:35.581Z,100698.81
2022-08-05T20:19:03.766Z,100698.81
2022-08-05T20:21:33.080Z,100690.00
2022-08-05T20:24:01.427Z,100690.00
2022-08-05T20:26:29.588Z,100693.53
2022-08-05T20:29:00.680Z,100705.91
2022-08-05T20:31:43.062Z,100698.84
2022-08-05T20:34:17.934Z,100694.44
2022-08-05T20:36:49.985Z,100695.31
2022-08-05T20:39:18.158Z,100688.25
2022-08-05T20:41:48.163Z,100682.03
2022-08-05T20:44:30.612Z,100676.75
2022-08-05T20:47:00.272Z,100570.03
2022-08-05T20:49:28.608Z,100687.34
2022-08-05T20:51:58.727Z,100668.81
2022-08-05T20:54:42.758Z,100667.06
2022-08-05T20:57:42.763Z,100603.53
2022-08-05T21:00:19.873Z,100672.31
2022-08-05T21:02:57.849Z,100657.31
2022-08-05T21:05:26.002Z,100679.41
2022-08-05T21:08:07.957Z,100674.09
2022-08-05T21:10:36.167Z,100683.81
2022-08-05T21:13:11.098Z,100670.59
2022-08-05T21:15:46.153Z,100625.59
2022-08-05T21:18:19.110Z,100674.09
2022-08-05T21:20:47.238Z,100654.66
2022-08-05T21:23:17.064Z,100668.81
2022-08-05T21:25:45.592Z,100670.56
2022-08-05T21:28:13.779Z,100672.34
2022-08-05T21:30:46.669Z,100667.94
2022-08-05T21:33:16.467Z,100648.53
2022-08-05T21:35:58.581Z,100668.81
2022-08-05T21:38:28.850Z,100662.66
2022-08-05T21:40:56.802Z,100658.25
2022-08-05T21:43:26.104Z,100650.31
2022-08-05T21:46:01.834Z,100675.03
2022-08-05T21:48:32.028Z,100668.00
2022-08-05T21:51:01.428Z,100652.09
2022-08-05T21:53:31.142Z,100675.91
2022-08-05T21:56:09.758Z,100679.44
2022-08-05T21:58:57.135Z,100682.97
2022-08-05T22:01:26.233Z,100667.97
2022-08-05T22:03:54.544Z,100680.34
2022-08-05T22:06:36.988Z,100678.56
2022-08-05T22:09:13.874Z,100684.75
2022-08-05T22:11:46.708Z,100673.28
2022-08-05T22:14:34.218Z,100664.44
2022-08-05T22:17:07.027Z,100670.63
2022-08-05T22:20:01.592Z,100661.78
2022-08-05T22:22:28.182Z,100645.91
2022-08-05T22:25:21.608Z,100654.72
2022-08-05T22:28:09.537Z,100656.47
2022-08-05T22:30:44.046Z,100655.59
2022-08-05T22:33:57.134Z,100645.88
2022-08-05T22:36:14.585Z,100655.56
2022-08-05T22:38:43.240Z,100652.03
2022-08-05T22:41:12.720Z,100640.56
2022-08-05T22:43:43.194Z,100651.16
2022-08-05T22:46:13.223Z,100651.16
2022-08-05T22:48:43.254Z,100644.97
2022-08-05T22:51:22.357Z,100648.50
2022-08-05T22:53:51.066Z,100650.28
2022-08-05T22:56:30.649Z,100665.28
2022-08-05T22:59:03.264Z,100655.59
2022-08-05T23:01:50.876Z,100661.78
2022-08-05T23:04:20.765Z,100652.94
2022-08-05T23:06:48.909Z,100656.50
2022-08-05T23:09:27.278Z,100669.75
2022-08-05T23:12:06.887Z,100679.50
2022-08-05T23:14:34.832Z,100642.44
2022-08-05T23:17:24.517Z,100683.94
2022-08-05T23:20:03.489Z,100690.09
2022-08-05T23:22:31.484Z,100688.28
2022-08-05T23:25:01.044Z,100694.44
2022-08-05T23:27:31.562Z,100712.00
2022-08-05T23:30:11.702Z,100692.53
2022-08-05T23:32:40.667Z,100699.53
2022-08-05T23:35:13.770Z,100698.63
2022-08-05T23:37:41.993Z,100685.34
2022-08-05T23:40:12.097Z,100672.03
2022-08-05T23:42:41.429Z,100684.41
2022-08-05T23:45:16.188Z,100690.53
2022-08-05T23:47:47.876Z,100688.75
2022-08-05T23:50:17.095Z,100699.28
2022-08-05T23:52:49.687Z,100686.03
2022-08-05T23:55:19.281Z,100697.47
2022-08-05T23:57:51.065Z,100681.59
